This is the latest recevied weather packets stored in our database for station/object GW1480. If no packets are shown the sender has not sent any weather packets the latest 10 day(s).
| Time | Temp. | Humidity | Pressure | Rain* | Wind** | Luminosity | Snow |
|---|---|---|---|---|---|---|---|
| 1777929328 | 25.56° C | 50% | 1012.1 hPa | 0.25 mm | - | - | - |
| 1777928990 | 25° C | 51% | 1012.1 hPa | 0.25 mm | - | - | - |
| 1777927172 | 24.44° C | 52% | 1012.5 hPa | 0.25 mm | - | - | - |
| 1777925741 | 23.89° C | 50% | 1012.5 hPa | 0.25 mm | - | - | - |
| 1777923576 | 21.67° C | 54% | 1013.5 hPa | 0.25 mm | - | - | - |
| 1777922842 | 21.11° C | 57% | 1013.5 hPa | 0.25 mm | - | - | - |
| 1777921789 | 20.56° C | 63% | 1013.8 hPa | 0.25 mm | - | - | - |
| 1777921053 | 22.22° C | 65% | 1014.2 hPa | 0 mm | - | - | - |
| 1777920335 | 22.78° C | 54% | 1013.8 hPa | 0 mm | - | - | - |
| 1777917800 | 21.67° C | 54% | 1013.5 hPa | 0 mm | - | - | - |
| 1777917468 | 21.67° C | 54% | 1013.5 hPa | 0 mm | - | - | - |
| 1777915633 | 21.11° C | 53% | 1013.8 hPa | 0 mm | - | - | - |
| 1777913498 | 20° C | 59% | 1014.9 hPa | 0 mm | - | - | - |
| 1777911690 | 17.78° C | 67% | 1015.5 hPa | 0 mm | - | - | - |
| 1777911312 | 17.78° C | 68% | 1015.5 hPa | 0 mm | - | - | - |
| 1777909155 | 18.33° C | 66% | 1015.9 hPa | 0 mm | - | - | - |
| 1777908790 | 17.78° C | 65% | 1016.2 hPa | 0 mm | - | - | - |
| 1777905223 | 15° C | 72% | 1016.5 hPa | 0 mm | - | - | - |
| 1777903777 | 15.56° C | 68% | 1017.2 hPa | 0 mm | - | - | - |
| 1777898370 | 12.78° C | 63% | 1016.5 hPa | 0 mm | - | - | - |
| 1777894049 | 6.67° C | 90% | 1015.9 hPa | 0 mm | - | - | - |
| 1777872802 | 9.44° C | 86% | 1018.2 hPa | 0 mm | - | - | - |
| 1777872104 | 8.89° C | 85% | 1017.9 hPa | 0 mm | - | - | - |
| 1777868502 | 8.89° C | 90% | 1018.2 hPa | 0 mm | - | - | - |
| 1777867790 | 8.89° C | 90% | 1017.9 hPa | 0 mm | - | - | - |
* Rain since midnight (hover to see other rain measurements)
** Current wind speed in m/s (hover to see current wind gust speed)